sensor_id;sensor_type;location;lat;lon;timestamp;pressure;altitude;pressure_sealevel;temperature;humidity
43161;BME280;40968;52.342;5.528;2023-07-31T00:01:19;100917.66;;;15.77;84.87
43161;BME280;40968;52.342;5.528;2023-07-31T00:03:46;100766.47;;;14.90;84.74
43161;BME280;40968;52.342;5.528;2023-07-31T00:06:13;100668.00;;;14.37;84.71
43161;BME280;40968;52.342;5.528;2023-07-31T00:08:39;100874.63;;;15.56;85.12
43161;BME280;40968;52.342;5.528;2023-07-31T00:11:07;100862.84;;;15.57;85.05
43161;BME280;40968;52.342;5.528;2023-07-31T00:13:34;100745.50;;;14.84;85.15
43161;BME280;40968;52.342;5.528;2023-07-31T00:16:02;100702.88;;;14.58;85.22
43161;BME280;40968;52.342;5.528;2023-07-31T00:18:29;100692.41;;;14.55;85.31
43161;BME280;40968;52.342;5.528;2023-07-31T00:20:55;100786.03;;;15.22;85.32
43161;BME280;40968;52.342;5.528;2023-07-31T00:23:22;100863.66;;;15.67;85.57
43161;BME280;40968;52.342;5.528;2023-07-31T00:25:48;100854.72;;;15.57;85.82
43161;BME280;40968;52.342;5.528;2023-07-31T00:28:16;100782.91;;;15.27;85.99
43161;BME280;40968;52.342;5.528;2023-07-31T00:30:43;100715.22;;;14.90;86.17
43161;BME280;40968;52.342;5.528;2023-07-31T00:33:10;100848.69;;;15.73;86.38
43161;BME280;40968;52.342;5.528;2023-07-31T00:35:36;100883.53;;;15.96;86.57
43161;BME280;40968;52.342;5.528;2023-07-31T00:38:03;100780.56;;;15.41;86.45
43161;BME280;40968;52.342;5.528;2023-07-31T00:40:34;100856.50;;;15.86;86.76
43161;BME280;40968;52.342;5.528;2023-07-31T00:43:01;100689.09;;;14.91;86.82
43161;BME280;40968;52.342;5.528;2023-07-31T00:45:30;100801.53;;;15.57;86.89
43161;BME280;40968;52.342;5.528;2023-07-31T00:47:58;100840.44;;;15.84;87.13
43161;BME280;40968;52.342;5.528;2023-07-31T00:50:25;100868.81;;;16.08;87.44
43161;BME280;40968;52.342;5.528;2023-07-31T00:52:52;100885.75;;;16.10;87.49
43161;BME280;40968;52.342;5.528;2023-07-31T00:55:19;100876.47;;;16.13;87.67
43161;BME280;40968;52.342;5.528;2023-07-31T00:57:48;100808.38;;;15.62;87.68
43161;BME280;40968;52.342;5.528;2023-07-31T01:00:14;100704.09;;;15.13;87.59
43161;BME280;40968;52.342;5.528;2023-07-31T01:02:42;100865.09;;;16.09;88.51
43161;BME280;40968;52.342;5.528;2023-07-31T01:05:09;100865.34;;;16.16;88.93
43161;BME280;40968;52.342;5.528;2023-07-31T01:07:43;100880.41;;;16.18;89.03
43161;BME280;40968;52.342;5.528;2023-07-31T01:10:16;100590.19;;;14.52;89.04
43161;BME280;40968;52.342;5.528;2023-07-31T01:12:45;100884.13;;;16.17;89.71
43161;BME280;40968;52.342;5.528;2023-07-31T01:15:13;100870.91;;;16.14;90.09
43161;BME280;40968;52.342;5.528;2023-07-31T01:17:42;100864.78;;;16.12;90.31
43161;BME280;40968;52.342;5.528;2023-07-31T01:20:12;100848.75;;;16.01;90.18
43161;BME280;40968;52.342;5.528;2023-07-31T01:26:03;100865.38;;;16.06;90.34
43161;BME280;40968;52.342;5.528;2023-07-31T01:28:38;100832.03;;;15.87;90.78
43161;BME280;40968;52.342;5.528;2023-07-31T01:31:07;100872.81;;;16.04;91.40
43161;BME280;40968;52.342;5.528;2023-07-31T01:33:36;100638.47;;;14.65;91.57
43161;BME280;40968;52.342;5.528;2023-07-31T01:36:04;100856.88;;;16.01;91.88
43161;BME280;40968;52.342;5.528;2023-07-31T01:38:31;100808.47;;;15.70;92.08
43161;BME280;40968;52.342;5.528;2023-07-31T01:40:59;100856.88;;;16.01;92.19
43161;BME280;40968;52.342;5.528;2023-07-31T01:43:26;100732.59;;;15.25;92.38
43161;BME280;40968;52.342;5.528;2023-07-31T01:45:53;100783.09;;;15.53;92.18
43161;BME280;40968;52.342;5.528;2023-07-31T01:48:19;100667.06;;;14.96;92.39
43161;BME280;40968;52.342;5.528;2023-07-31T01:50:46;100844.63;;;16.06;92.46
43161;BME280;40968;52.342;5.528;2023-07-31T01:53:13;100853.41;;;16.08;92.28
43161;BME280;40968;52.342;5.528;2023-07-31T01:55:39;100850.72;;;16.08;92.56
43161;BME280;40968;52.342;5.528;2023-07-31T01:58:07;100754.38;;;15.52;92.53
43161;BME280;40968;52.342;5.528;2023-07-31T02:00:34;100808.72;;;15.86;92.31
43161;BME280;40968;52.342;5.528;2023-07-31T02:03:01;100844.31;;;16.10;92.23
43161;BME280;40968;52.342;5.528;2023-07-31T02:05:28;100838.06;;;16.09;92.38
43161;BME280;40968;52.342;5.528;2023-07-31T02:07:54;100838.91;;;16.10;92.49
43161;BME280;40968;52.342;5.528;2023-07-31T02:10:21;100831.66;;;16.10;92.61
43161;BME280;40968;52.342;5.528;2023-07-31T02:12:47;100766.81;;;15.72;92.70
43161;BME280;40968;52.342;5.528;2023-07-31T02:15:16;100680.22;;;15.18;92.50
43161;BME280;40968;52.342;5.528;2023-07-31T02:17:42;100504.88;;;14.23;92.71
43161;BME280;40968;52.342;5.528;2023-07-31T02:20:10;100618.91;;;15.01;92.54
43161;BME280;40968;52.342;5.528;2023-07-31T02:22:36;100809.00;;;16.11;92.92
43161;BME280;40968;52.342;5.528;2023-07-31T02:25:03;100800.78;;;16.13;93.28
43161;BME280;40968;52.342;5.528;2023-07-31T02:27:30;100774.38;;;15.97;93.06
43161;BME280;40968;52.342;5.528;2023-07-31T02:29:57;100782.06;;;16.01;92.88
43161;BME280;40968;52.342;5.528;2023-07-31T02:32:26;100704.94;;;15.51;92.83
43161;BME280;40968;52.342;5.528;2023-07-31T02:34:52;100642.03;;;15.03;92.99
43161;BME280;40968;52.342;5.528;2023-07-31T02:37:19;100713.94;;;15.70;92.98
43161;BME280;40968;52.342;5.528;2023-07-31T02:39:46;100646.31;;;15.34;93.04
43161;BME280;40968;52.342;5.528;2023-07-31T02:42:13;100798.44;;;16.18;92.99
43161;BME280;40968;52.342;5.528;2023-07-31T02:44:39;100760.44;;;16.01;93.14
43161;BME280;40968;52.342;5.528;2023-07-31T02:47:06;100693.22;;;15.61;93.11
43161;BME280;40968;52.342;5.528;2023-07-31T02:49:34;100720.41;;;15.77;93.08
43161;BME280;40968;52.342;5.528;2023-07-31T02:52:00;100473.91;;;14.27;92.77
43161;BME280;40968;52.342;5.528;2023-07-31T02:54:27;100613.00;;;15.15;92.78
43161;BME280;40968;52.342;5.528;2023-07-31T02:56:54;100780.81;;;16.14;92.94
43161;BME280;40968;52.342;5.528;2023-07-31T02:59:20;100771.16;;;16.11;92.78
43161;BME280;40968;52.342;5.528;2023-07-31T03:01:47;100786.19;;;16.23;92.58
43161;BME280;40968;52.342;5.528;2023-07-31T03:04:14;100739.72;;;15.92;92.59
43161;BME280;40968;52.342;5.528;2023-07-31T03:06:42;100787.19;;;16.22;92.70
43161;BME280;40968;52.342;5.528;2023-07-31T03:09:08;100781.06;;;16.20;92.63
43161;BME280;40968;52.342;5.528;2023-07-31T03:11:35;100788.34;;;16.20;92.94
43161;BME280;40968;52.342;5.528;2023-07-31T03:14:02;100741.72;;;15.90;92.86
43161;BME280;40968;52.342;5.528;2023-07-31T03:16:28;100699.56;;;15.69;92.93
43161;BME280;40968;52.342;5.528;2023-07-31T03:18:55;100741.94;;;15.97;92.91
43161;BME280;40968;52.342;5.528;2023-07-31T03:21:22;100739.00;;;15.90;92.83
43161;BME280;40968;52.342;5.528;2023-07-31T03:23:51;100797.28;;;16.20;93.00
43161;BME280;40968;52.342;5.528;2023-07-31T03:26:17;100735.47;;;15.89;93.03
43161;BME280;40968;52.342;5.528;2023-07-31T03:28:44;100712.22;;;15.69;92.96
43161;BME280;40968;52.342;5.528;2023-07-31T03:31:11;100740.97;;;15.98;92.94
43161;BME280;40968;52.342;5.528;2023-07-31T03:33:37;100727.50;;;15.88;92.77
43161;BME280;40968;52.342;5.528;2023-07-31T03:36:04;100739.25;;;15.97;92.79
43161;BME280;40968;52.342;5.528;2023-07-31T03:38:33;100770.25;;;16.20;92.58
43161;BME280;40968;52.342;5.528;2023-07-31T03:41:01;100781.94;;;16.21;92.65
43161;BME280;40968;52.342;5.528;2023-07-31T03:43:28;100768.56;;;16.19;92.44
43161;BME280;40968;52.342;5.528;2023-07-31T03:45:54;100766.47;;;16.13;92.47
43161;BME280;40968;52.342;5.528;2023-07-31T03:48:21;100730.34;;;15.86;92.28
43161;BME280;40968;52.342;5.528;2023-07-31T03:50:48;100631.41;;;15.30;92.10
43161;BME280;40968;52.342;5.528;2023-07-31T03:53:14;100472.78;;;14.30;92.14
43161;BME280;40968;52.342;5.528;2023-07-31T03:55:41;100659.28;;;15.48;92.01
43161;BME280;40968;52.342;5.528;2023-07-31T03:58:09;100724.09;;;15.86;91.56
43161;BME280;40968;52.342;5.528;2023-07-31T04:00:36;100768.34;;;16.13;91.59
43161;BME280;40968;52.342;5.528;2023-07-31T04:03:03;100770.88;;;16.14;91.78
43161;BME280;40968;52.342;5.528;2023-07-31T04:05:30;100704.19;;;15.77;91.33
43161;BME280;40968;52.342;5.528;2023-07-31T04:07:56;100535.66;;;14.78;91.08
43161;BME280;40968;52.342;5.528;2023-07-31T04:10:23;100673.31;;;15.62;91.10
43161;BME280;40968;52.342;5.528;2023-07-31T04:12:50;100700.25;;;15.81;91.07
43161;BME280;40968;52.342;5.528;2023-07-31T04:15:18;100655.69;;;15.57;90.87
43161;BME280;40968;52.342;5.528;2023-07-31T04:17:44;100713.84;;;15.89;91.21
43161;BME280;40968;52.342;5.528;2023-07-31T04:20:11;100740.59;;;16.11;91.16
43161;BME280;40968;52.342;5.528;2023-07-31T04:22:38;100539.56;;;14.94;90.81
43161;BME280;40968;52.342;5.528;2023-07-31T04:25:05;100737.06;;;16.10;90.93
43161;BME280;40968;52.342;5.528;2023-07-31T04:27:32;100645.34;;;15.53;90.75
43161;BME280;40968;52.342;5.528;2023-07-31T04:29:59;100633.84;;;15.51;90.89
43161;BME280;40968;52.342;5.528;2023-07-31T04:32:27;100646.19;;;15.53;90.97
43161;BME280;40968;52.342;5.528;2023-07-31T04:34:55;100697.78;;;15.88;90.96
43161;BME280;40968;52.342;5.528;2023-07-31T04:37:21;100693.22;;;15.88;91.26
43161;BME280;40968;52.342;5.528;2023-07-31T04:39:48;100659.81;;;15.62;91.08
43161;BME280;40968;52.342;5.528;2023-07-31T04:42:15;100744.13;;;16.11;91.44
43161;BME280;40968;52.342;5.528;2023-07-31T04:44:41;100522.25;;;14.86;91.30
43161;BME280;40968;52.342;5.528;2023-07-31T04:47:08;100683.00;;;15.82;91.43
43161;BME280;40968;52.342;5.528;2023-07-31T04:49:36;100568.44;;;15.11;91.49
43161;BME280;40968;52.342;5.528;2023-07-31T04:52:03;100645.75;;;15.58;91.32
43161;BME280;40968;52.342;5.528;2023-07-31T04:54:30;100612.31;;;15.41;91.68
43161;BME280;40968;52.342;5.528;2023-07-31T04:56:57;100729.63;;;16.12;91.54
43161;BME280;40968;52.342;5.528;2023-07-31T04:59:23;100697.31;;;15.93;91.59
43161;BME280;40968;52.342;5.528;2023-07-31T05:01:50;100672.22;;;15.82;91.53
43161;BME280;40968;52.342;5.528;2023-07-31T05:04:17;100600.50;;;15.42;91.25
43161;BME280;40968;52.342;5.528;2023-07-31T05:06:45;100464.03;;;14.56;90.96
43161;BME280;40968;52.342;5.528;2023-07-31T05:09:11;100711.06;;;15.99;91.08
43161;BME280;40968;52.342;5.528;2023-07-31T05:11:38;100667.25;;;15.78;91.10
43161;BME280;40968;52.342;5.528;2023-07-31T05:14:05;100663.00;;;15.75;90.98
43161;BME280;40968;52.342;5.528;2023-07-31T05:16:33;100643.88;;;15.58;91.12
43161;BME280;40968;52.342;5.528;2023-07-31T05:18:59;100709.63;;;16.05;91.21
43161;BME280;40968;52.342;5.528;2023-07-31T05:21:26;100680.88;;;15.86;91.15
43161;BME280;40968;52.342;5.528;2023-07-31T05:23:54;100714.16;;;16.04;91.23
43161;BME280;40968;52.342;5.528;2023-07-31T05:26:21;100719.72;;;16.03;91.16
43161;BME280;40968;52.342;5.528;2023-07-31T05:28:47;100591.63;;;15.32;91.11
43161;BME280;40968;52.342;5.528;2023-07-31T05:31:14;100529.66;;;14.84;91.14
43161;BME280;40968;52.342;5.528;2023-07-31T05:33:41;100611.91;;;15.36;91.30
43161;BME280;40968;52.342;5.528;2023-07-31T05:36:08;100503.47;;;14.67;91.27
43161;BME280;40968;52.342;5.528;2023-07-31T05:38:34;100508.81;;;14.77;91.28
43161;BME280;40968;52.342;5.528;2023-07-31T05:41:03;100612.31;;;15.41;91.65
43161;BME280;40968;52.342;5.528;2023-07-31T05:43:30;100605.81;;;15.34;91.68
43161;BME280;40968;52.342;5.528;2023-07-31T05:45:57;100659.50;;;15.65;91.48
43161;BME280;40968;52.342;5.528;2023-07-31T05:48:23;100665.38;;;15.78;91.61
43161;BME280;40968;52.342;5.528;2023-07-31T05:50:50;100683.41;;;15.87;91.87
43161;BME280;40968;52.342;5.528;2023-07-31T05:53:17;100687.09;;;15.86;91.75
43161;BME280;40968;52.342;5.528;2023-07-31T05:55:43;100624.44;;;15.55;91.88
43161;BME280;40968;52.342;5.528;2023-07-31T05:58:11;100674.00;;;15.91;92.26
43161;BME280;40968;52.342;5.528;2023-07-31T06:00:38;100657.28;;;15.78;91.92
43161;BME280;40968;52.342;5.528;2023-07-31T06:03:06;100636.41;;;15.70;91.96
43161;BME280;40968;52.342;5.528;2023-07-31T06:05:33;100548.31;;;15.23;91.74
43161;BME280;40968;52.342;5.528;2023-07-31T06:08:00;100466.69;;;14.66;91.54
43161;BME280;40968;52.342;5.528;2023-07-31T06:10:27;100626.31;;;15.72;91.93
43161;BME280;40968;52.342;5.528;2023-07-31T06:12:54;100386.59;;;14.20;91.55
43161;BME280;40968;52.342;5.528;2023-07-31T06:15:23;100564.16;;;15.36;92.00
43161;BME280;40968;52.342;5.528;2023-07-31T06:17:50;100599.69;;;15.59;92.23
43161;BME280;40968;52.342;5.528;2023-07-31T06:20:17;100541.06;;;15.24;92.02
43161;BME280;40968;52.342;5.528;2023-07-31T06:22:44;100655.47;;;15.97;91.76
43161;BME280;40968;52.342;5.528;2023-07-31T06:25:11;100661.19;;;15.94;91.88
43161;BME280;40968;52.342;5.528;2023-07-31T06:27:38;100549.81;;;15.36;91.79
43161;BME280;40968;52.342;5.528;2023-07-31T06:30:06;100576.13;;;15.52;91.88
43161;BME280;40968;52.342;5.528;2023-07-31T06:32:34;100642.88;;;15.87;92.16
43161;BME280;40968;52.342;5.528;2023-07-31T06:35:01;100545.47;;;15.25;92.30
43161;BME280;40968;52.342;5.528;2023-07-31T06:37:28;100639.03;;;15.90;92.40
43161;BME280;40968;52.342;5.528;2023-07-31T06:39:54;100557.69;;;15.47;92.41
43161;BME280;40968;52.342;5.528;2023-07-31T06:42:21;100565.28;;;15.62;92.60
43161;BME280;40968;52.342;5.528;2023-07-31T06:44:48;100590.34;;;15.72;92.63
43161;BME280;40968;52.342;5.528;2023-07-31T06:47:14;100394.47;;;14.59;92.39
43161;BME280;40968;52.342;5.528;2023-07-31T06:49:42;100615.94;;;15.96;92.80
43161;BME280;40968;52.342;5.528;2023-07-31T06:52:09;100515.38;;;15.38;92.63
43161;BME280;40968;52.342;5.528;2023-07-31T06:54:36;100548.69;;;15.56;92.90
43161;BME280;40968;52.342;5.528;2023-07-31T06:57:03;100611.78;;;16.01;92.93
43161;BME280;40968;52.342;5.528;2023-07-31T06:59:31;100611.94;;;16.00;93.06
43161;BME280;40968;52.342;5.528;2023-07-31T07:01:58;100589.22;;;15.93;93.27
43161;BME280;40968;52.342;5.528;2023-07-31T07:04:25;100607.75;;;16.05;93.14
43161;BME280;40968;52.342;5.528;2023-07-31T07:06:53;100559.78;;;15.71;93.27
43161;BME280;40968;52.342;5.528;2023-07-31T07:09:20;100548.38;;;15.78;93.43
43161;BME280;40968;52.342;5.528;2023-07-31T07:11:46;100611.00;;;16.09;93.20
43161;BME280;40968;52.342;5.528;2023-07-31T07:14:13;100565.72;;;15.75;93.71
43161;BME280;40968;52.342;5.528;2023-07-31T07:16:39;100543.13;;;15.76;93.52
43161;BME280;40968;52.342;5.528;2023-07-31T07:19:07;100444.50;;;15.18;93.37
43161;BME280;40968;52.342;5.528;2023-07-31T07:21:34;100581.94;;;16.11;93.74
43161;BME280;40968;52.342;5.528;2023-07-31T07:24:02;100606.75;;;16.24;93.68
43161;BME280;40968;52.342;5.528;2023-07-31T07:26:29;100517.72;;;15.69;93.43
43161;BME280;40968;52.342;5.528;2023-07-31T07:28:56;100602.53;;;16.30;93.93
43161;BME280;40968;52.342;5.528;2023-07-31T07:31:23;100564.34;;;16.07;93.64
43161;BME280;40968;52.342;5.528;2023-07-31T07:33:49;100596.31;;;16.30;93.56
43161;BME280;40968;52.342;5.528;2023-07-31T07:36:16;100604.75;;;16.35;93.44
43161;BME280;40968;52.342;5.528;2023-07-31T07:38:43;100541.00;;;16.06;93.50
43161;BME280;40968;52.342;5.528;2023-07-31T07:41:11;100329.66;;;14.79;93.59
43161;BME280;40968;52.342;5.528;2023-07-31T07:43:38;100429.78;;;15.30;93.88
43161;BME280;40968;52.342;5.528;2023-07-31T07:46:04;100582.13;;;16.36;93.84
43161;BME280;40968;52.342;5.528;2023-07-31T07:48:31;100602.50;;;16.48;93.89
43161;BME280;40968;52.342;5.528;2023-07-31T07:50:58;100582.41;;;16.51;93.85
43161;BME280;40968;52.342;5.528;2023-07-31T07:53:25;100556.53;;;16.22;93.77
43161;BME280;40968;52.342;5.528;2023-07-31T07:55:51;100440.38;;;15.68;93.45
43161;BME280;40968;52.342;5.528;2023-07-31T07:58:19;100567.81;;;16.44;93.55
43161;BME280;40968;52.342;5.528;2023-07-31T08:00:49;100317.81;;;14.98;93.58
43161;BME280;40968;52.342;5.528;2023-07-31T08:03:16;100517.56;;;16.33;93.81
43161;BME280;40968;52.342;5.528;2023-07-31T08:05:43;100520.09;;;16.34;93.99
43161;BME280;40968;52.342;5.528;2023-07-31T08:08:14;100589.44;;;16.70;94.04
43161;BME280;40968;52.342;5.528;2023-07-31T08:10:41;100344.94;;;15.33;93.79
43161;BME280;40968;52.342;5.528;2023-07-31T08:13:09;100574.75;;;16.72;94.13
43161;BME280;40968;52.342;5.528;2023-07-31T08:15:37;100546.94;;;16.62;94.17
43161;BME280;40968;52.342;5.528;2023-07-31T08:18:03;100524.06;;;16.48;94.00
43161;BME280;40968;52.342;5.528;2023-07-31T08:20:30;100483.91;;;16.27;94.04
43161;BME280;40968;52.342;5.528;2023-07-31T08:22:57;100316.53;;;15.29;93.66
43161;BME280;40968;52.342;5.528;2023-07-31T08:25:23;100293.91;;;15.21;93.47
43161;BME280;40968;52.342;5.528;2023-07-31T08:27:50;100549.25;;;16.83;94.00
43161;BME280;40968;52.342;5.528;2023-07-31T08:30:18;100508.59;;;16.67;94.19
43161;BME280;40968;52.342;5.528;2023-07-31T08:32:46;100568.31;;;17.00;94.18
43161;BME280;40968;52.342;5.528;2023-07-31T08:35:13;100534.66;;;17.02;94.11
43161;BME280;40968;52.342;5.528;2023-07-31T08:37:40;100513.75;;;16.78;93.90
43161;BME280;40968;52.342;5.528;2023-07-31T08:40:07;100299.88;;;15.59;93.99
43161;BME280;40968;52.342;5.528;2023-07-31T08:42:43;100549.44;;;17.16;94.33
43161;BME280;40968;52.342;5.528;2023-07-31T08:45:13;100452.78;;;16.57;93.77
43161;BME280;40968;52.342;5.528;2023-07-31T08:47:41;100471.72;;;16.66;93.59
43161;BME280;40968;52.342;5.528;2023-07-31T08:50:10;100296.00;;;15.62;93.63
43161;BME280;40968;52.342;5.528;2023-07-31T08:52:38;100558.94;;;17.29;93.91
43161;BME280;40968;52.342;5.528;2023-07-31T08:55:06;100360.63;;;16.08;93.58
43161;BME280;40968;52.342;5.528;2023-07-31T08:57:35;100338.47;;;16.04;93.70
43161;BME280;40968;52.342;5.528;2023-07-31T09:00:03;100555.25;;;17.38;93.78
43161;BME280;40968;52.342;5.528;2023-07-31T09:02:35;100550.19;;;17.43;94.15
43161;BME280;40968;52.342;5.528;2023-07-31T09:05:05;100248.22;;;15.63;93.35
43161;BME280;40968;52.342;5.528;2023-07-31T09:07:34;100500.69;;;17.16;93.69
43161;BME280;40968;52.342;5.528;2023-07-31T09:10:01;100474.28;;;17.02;93.38
43161;BME280;40968;52.342;5.528;2023-07-31T09:12:28;100439.81;;;16.86;93.38
43161;BME280;40968;52.342;5.528;2023-07-31T09:14:55;100546.28;;;17.54;93.34
43161;BME280;40968;52.342;5.528;2023-07-31T09:17:28;100477.00;;;17.18;93.24
43161;BME280;40968;52.342;5.528;2023-07-31T09:19:56;100442.78;;;17.01;93.23
43161;BME280;40968;52.342;5.528;2023-07-31T09:22:31;100546.50;;;17.69;93.18
43161;BME280;40968;52.342;5.528;2023-07-31T09:25:14;100514.31;;;17.49;93.14
43161;BME280;40968;52.342;5.528;2023-07-31T09:27:46;100501.75;;;17.40;92.94
43161;BME280;40968;52.342;5.528;2023-07-31T09:30:13;100236.03;;;15.85;92.90
43161;BME280;40968;52.342;5.528;2023-07-31T09:32:40;100526.84;;;17.67;92.89
43161;BME280;40968;52.342;5.528;2023-07-31T09:35:14;100471.44;;;17.36;93.07
43161;BME280;40968;52.342;5.528;2023-07-31T09:37:48;100343.56;;;16.58;93.15
43161;BME280;40968;52.342;5.528;2023-07-31T09:40:26;100231.16;;;15.88;92.87
43161;BME280;40968;52.342;5.528;2023-07-31T09:42:54;100533.47;;;17.72;93.04
43161;BME280;40968;52.342;5.528;2023-07-31T09:45:22;100467.06;;;17.44;93.18
43161;BME280;40968;52.342;5.528;2023-07-31T09:47:50;100366.94;;;16.84;93.39
43161;BME280;40968;52.342;5.528;2023-07-31T09:50:25;100459.94;;;17.43;93.60
43161;BME280;40968;52.342;5.528;2023-07-31T09:52:57;100533.13;;;17.84;93.40
43161;BME280;40968;52.342;5.528;2023-07-31T09:55:36;100467.22;;;17.42;93.50
43161;BME280;40968;52.342;5.528;2023-07-31T09:58:09;100307.69;;;16.48;93.41
43161;BME280;40968;52.342;5.528;2023-07-31T10:00:51;100303.47;;;16.46;93.83
43161;BME280;40968;52.342;5.528;2023-07-31T10:03:26;100378.44;;;16.86;93.61
43161;BME280;40968;52.342;5.528;2023-07-31T10:06:07;100394.59;;;17.04;93.83
43161;BME280;40968;52.342;5.528;2023-07-31T10:08:53;100476.88;;;17.61;93.77
43161;BME280;40968;52.342;5.528;2023-07-31T10:11:45;100521.44;;;17.92;94.24
43161;BME280;40968;52.342;5.528;2023-07-31T10:14:30;100344.28;;;16.77;93.74
43161;BME280;40968;52.342;5.528;2023-07-31T10:17:04;100371.38;;;16.94;94.12
43161;BME280;40968;52.342;5.528;2023-07-31T10:19:37;100298.53;;;16.49;93.92
43161;BME280;40968;52.342;5.528;2023-07-31T10:22:22;100452.00;;;17.49;93.91
43161;BME280;40968;52.342;5.528;2023-07-31T10:25:06;100503.13;;;17.77;93.84
43161;BME280;40968;52.342;5.528;2023-07-31T10:27:47;100528.38;;;18.02;94.18
43161;BME280;40968;52.342;5.528;2023-07-31T10:30:20;100332.81;;;16.92;94.10
43161;BME280;40968;52.342;5.528;2023-07-31T10:32:50;100492.16;;;17.95;94.26
43161;BME280;40968;52.342;5.528;2023-07-31T10:35:28;100308.25;;;16.85;93.97
43161;BME280;40968;52.342;5.528;2023-07-31T10:38:12;100371.06;;;17.30;93.16
43161;BME280;40968;52.342;5.528;2023-07-31T10:40:46;100283.53;;;16.71;93.60
43161;BME280;40968;52.342;5.528;2023-07-31T10:43:49;100453.66;;;17.83;93.07
43161;BME280;40968;52.342;5.528;2023-07-31T10:46:24;100495.84;;;18.19;93.37
43161;BME280;40968;52.342;5.528;2023-07-31T10:49:04;100441.44;;;18.12;93.59
43161;BME280;40968;52.342;5.528;2023-07-31T10:51:38;100453.25;;;18.36;93.99
43161;BME280;40968;52.342;5.528;2023-07-31T10:54:16;100459.81;;;18.50;92.54
43161;BME280;40968;52.342;5.528;2023-07-31T10:56:50;100332.75;;;17.66;90.84
43161;BME280;40968;52.342;5.528;2023-07-31T10:59:19;100538.41;;;18.91;90.27
43161;BME280;40968;52.342;5.528;2023-07-31T11:01:51;100161.47;;;16.50;89.09
43161;BME280;40968;52.342;5.528;2023-07-31T11:04:22;100496.94;;;18.49;90.09
43161;BME280;40968;52.342;5.528;2023-07-31T11:06:55;100542.34;;;18.64;90.23
43161;BME280;40968;52.342;5.528;2023-07-31T11:09:24;100273.94;;;16.94;89.97
43161;BME280;40968;52.342;5.528;2023-07-31T11:11:54;100238.41;;;16.72;90.33
43161;BME280;40968;52.342;5.528;2023-07-31T11:14:22;100538.00;;;18.46;90.67
43161;BME280;40968;52.342;5.528;2023-07-31T11:16:49;100408.63;;;17.57;90.75
43161;BME280;40968;52.342;5.528;2023-07-31T11:19:21;100359.22;;;17.39;91.19
43161;BME280;40968;52.342;5.528;2023-07-31T11:21:48;100312.84;;;17.17;91.46
43161;BME280;40968;52.342;5.528;2023-07-31T11:24:15;100288.50;;;17.01;92.13
43161;BME280;40968;52.342;5.528;2023-07-31T11:26:48;100536.97;;;18.55;91.65
43161;BME280;40968;52.342;5.528;2023-07-31T11:29:15;100488.16;;;18.39;91.46
43161;BME280;40968;52.342;5.528;2023-07-31T11:31:43;100358.44;;;17.86;92.10
43161;BME280;40968;52.342;5.528;2023-07-31T11:34:10;100342.19;;;17.86;90.78
43161;BME280;40968;52.342;5.528;2023-07-31T11:36:37;100533.72;;;19.08;90.96
43161;BME280;40968;52.342;5.528;2023-07-31T11:39:08;100502.91;;;18.93;90.07
43161;BME280;40968;52.342;5.528;2023-07-31T11:41:35;100528.44;;;19.15;90.01
43161;BME280;40968;52.342;5.528;2023-07-31T11:44:02;100513.84;;;19.16;89.44
43161;BME280;40968;52.342;5.528;2023-07-31T11:46:30;100493.88;;;19.00;88.96
43161;BME280;40968;52.342;5.528;2023-07-31T11:49:00;100525.84;;;19.21;87.82
43161;BME280;40968;52.342;5.528;2023-07-31T11:51:27;100447.94;;;18.82;88.14
43161;BME280;40968;52.342;5.528;2023-07-31T11:53:57;100350.97;;;18.13;87.63
43161;BME280;40968;52.342;5.528;2023-07-31T11:56:25;100483.25;;;18.91;87.77
43161;BME280;40968;52.342;5.528;2023-07-31T11:58:54;100525.19;;;19.19;87.96
43161;BME280;40968;52.342;5.528;2023-07-31T12:01:22;100514.66;;;19.16;87.39
43161;BME280;40968;52.342;5.528;2023-07-31T12:03:51;100534.72;;;19.15;87.58
43161;BME280;40968;52.342;5.528;2023-07-31T12:06:20;100456.28;;;18.81;88.08
43161;BME280;40968;52.342;5.528;2023-07-31T12:08:47;100426.72;;;18.54;87.43
43161;BME280;40968;52.342;5.528;2023-07-31T12:11:14;100527.63;;;19.06;86.92
43161;BME280;40968;52.342;5.528;2023-07-31T12:13:43;100533.97;;;18.98;86.97
43161;BME280;40968;52.342;5.528;2023-07-31T12:16:10;100524.81;;;18.91;87.81
43161;BME280;40968;52.342;5.528;2023-07-31T12:18:37;100522.28;;;18.89;88.56
43161;BME280;40968;52.342;5.528;2023-07-31T12:21:06;100275.94;;;17.33;87.94
43161;BME280;40968;52.342;5.528;2023-07-31T12:23:36;100494.53;;;18.63;88.82
43161;BME280;40968;52.342;5.528;2023-07-31T12:26:04;100408.94;;;18.04;88.67
43161;BME280;40968;52.342;5.528;2023-07-31T12:28:35;100525.34;;;18.86;89.17
43161;BME280;40968;52.342;5.528;2023-07-31T12:31:02;100259.72;;;17.16;88.91
43161;BME280;40968;52.342;5.528;2023-07-31T12:33:31;100472.16;;;18.61;88.85
43161;BME280;40968;52.342;5.528;2023-07-31T12:36:00;100519.53;;;18.98;89.48
43161;BME280;40968;52.342;5.528;2023-07-31T12:38:27;100343.19;;;18.02;89.30
43161;BME280;40968;52.342;5.528;2023-07-31T12:40:56;100427.41;;;18.56;89.32
43161;BME280;40968;52.342;5.528;2023-07-31T12:43:23;100443.41;;;18.75;88.50
43161;BME280;40968;52.342;5.528;2023-07-31T12:45:50;100497.03;;;19.12;88.07
43161;BME280;40968;52.342;5.528;2023-07-31T12:48:16;100430.16;;;18.80;87.64
43161;BME280;40968;52.342;5.528;2023-07-31T12:50:43;100340.75;;;18.23;87.66
43161;BME280;40968;52.342;5.528;2023-07-31T12:53:10;100396.88;;;18.54;87.18
43161;BME280;40968;52.342;5.528;2023-07-31T12:55:36;100470.50;;;19.22;87.75
43161;BME280;40968;52.342;5.528;2023-07-31T12:58:04;100308.84;;;18.26;87.08
43161;BME280;40968;52.342;5.528;2023-07-31T13:00:31;100489.44;;;19.31;86.41